Stonewall, NC (28583)

12:26 PM EDT on July 30, 2015 (GMT -0400)
WatersEdge | | Change Station
CLOSE
Current Station
Personal Weather Station
Location: Oriental, NC
Elevation: 13 ft
Nearby Weather Stations

Elev 13 ft 35.10 °N, 76.64 °W | Updated 10 minutes ago

Partly Cloudy
Partly Cloudy
91.0 °F
Feels Like 111 °F
N
2.7
Wind Variable Wind from SE

Today
High -- | Low -- °F
--% Chance of Precip.
Yesterday
High -- | Low -- °F
Precip. -- in
6:14 AM 8:11 PM
Waxing Gibbous, 99% visible
Pressure 29.96 in
Visibility 10.0 miles
Clouds Scattered Clouds 2400 ft
Scattered Clouds 3300 ft
Heat Index 111 °F
Dew Point 81 °F
Humidity 72%
Rainfall 0.06 in
Snow Depth Not available.
UV 9 out of 12
Pollen 3.40 out of 12
Air Quality Not available.
Flu Activity Not available.
SPECI KEWN 301611Z 09009KT 10SM SCT024 SCT033 32/24 A2996 RMK AO2 T03220244

More Conditions Fewer Conditions

Pressure 29.96 in
Visibility 10.0 miles
Clouds Scattered Clouds 2400 ft
Scattered Clouds 3300 ft
Heat Index 111 °F
Dew Point 81 °F
Humidity 72%
Rainfall 0.06 in
Snow Depth Not available.
UV 9 out of 12
Pollen 3.40 out of 12
Air Quality Not available.
Flu Activity Not available.
SPECI KEWN 301611Z 09009KT 10SM SCT024 SCT033 32/24 A2996 RMK AO2 T03220244

More Conditions Fewer Conditions

10-Day Weather Forecast

×

Almanac

Astronomy

Jul. 30, 2015 Rise Set
Actual Time
Civil Twilight
Nautical Twilight
Astronomical Twilight
Moon
Length of Visible Light
Length of Day
Tomorrow will be .
, % of the Moon is Illuminated

Today's Extremes

State Highs State Lows

Community

WunderPhotos

Upload Photos

1,842,417 photos uploaded!

WunderBlogs® & News

Nearby

Air Quality

  Air Quality AQ Index Pollutant
Not available.

Snow Depth

Station Depth Elevation

Earthquake Activity

City Distance Mag. Time & Date
Minimum magnitude displayed is 2.5.

Coastal Water Temperatures

Place Temperature

Stations

Nearby Weather Stations

Station Location Temp. Windchill Dew Point Humidity Wind Precip. Elev Updated Type